Terminal Aerodrome Forecast
Issued by NWS Twin Cities, MN

Home | Current Version | Previous Version | Graphics & Text | Print | Product List | Glossary On
Versions: 1 2 3 4 5 6 7 8 9 10 11 12 13 14
715
FTUS43 KMPX 211720
TAFEAU
TAF
KEAU 211720Z 2118/2218 VRB03KT P6SM FEW080
     FM221700 19008KT P6SM FEW250=

USA.gov is the U.S. government's official web portal to all federal, state and local government web resources and services.